sensor_id;sensor_type;location;lat;lon;timestamp;P1;durP1;ratioP1;P2;durP2;ratioP2
27566;SDS011;15006;48.584;9.186;2022-09-12T00:00:42;8.45;;;7.95;;
27566;SDS011;15006;48.584;9.186;2022-09-12T00:03:09;9.10;;;8.23;;
27566;SDS011;15006;48.584;9.186;2022-09-12T00:05:39;9.27;;;8.52;;
27566;SDS011;15006;48.584;9.186;2022-09-12T00:08:07;9.82;;;9.07;;
27566;SDS011;15006;48.584;9.186;2022-09-12T00:10:36;9.23;;;8.52;;
27566;SDS011;15006;48.584;9.186;2022-09-12T00:13:06;9.80;;;8.98;;
27566;SDS011;15006;48.584;9.186;2022-09-12T00:15:40;9.18;;;8.48;;
27566;SDS011;15006;48.584;9.186;2022-09-12T00:18:08;10.25;;;9.35;;
27566;SDS011;15006;48.584;9.186;2022-09-12T00:20:45;9.70;;;8.90;;
27566;SDS011;15006;48.584;9.186;2022-09-12T00:23:12;10.18;;;9.45;;
27566;SDS011;15006;48.584;9.186;2022-09-12T00:25:43;9.43;;;8.80;;
27566;SDS011;15006;48.584;9.186;2022-09-12T00:28:13;9.73;;;9.00;;
27566;SDS011;15006;48.584;9.186;2022-09-12T00:30:45;8.98;;;8.38;;
27566;SDS011;15006;48.584;9.186;2022-09-12T00:33:13;8.48;;;7.78;;
27566;SDS011;15006;48.584;9.186;2022-09-12T00:35:48;9.50;;;8.60;;
27566;SDS011;15006;48.584;9.186;2022-09-12T00:38:17;9.32;;;8.63;;
27566;SDS011;15006;48.584;9.186;2022-09-12T00:40:44;8.95;;;8.25;;
27566;SDS011;15006;48.584;9.186;2022-09-12T00:43:11;9.18;;;8.18;;
27566;SDS011;15006;48.584;9.186;2022-09-12T00:46:12;7.95;;;7.30;;
27566;SDS011;15006;48.584;9.186;2022-09-12T00:49:11;8.07;;;7.57;;
27566;SDS011;15006;48.584;9.186;2022-09-12T00:51:56;8.63;;;7.90;;
27566;SDS011;15006;48.584;9.186;2022-09-12T00:54:31;9.10;;;8.50;;
27566;SDS011;15006;48.584;9.186;2022-09-12T00:57:09;10.65;;;8.07;;
27566;SDS011;15006;48.584;9.186;2022-09-12T00:59:40;7.72;;;7.13;;
27566;SDS011;15006;48.584;9.186;2022-09-12T01:02:39;7.65;;;7.10;;
27566;SDS011;15006;48.584;9.186;2022-09-12T01:05:18;7.70;;;7.20;;
27566;SDS011;15006;48.584;9.186;2022-09-12T01:07:51;8.55;;;7.72;;
27566;SDS011;15006;48.584;9.186;2022-09-12T01:10:21;8.60;;;7.90;;
27566;SDS011;15006;48.584;9.186;2022-09-12T01:12:48;7.70;;;7.18;;
27566;SDS011;15006;48.584;9.186;2022-09-12T01:15:15;8.35;;;7.72;;
27566;SDS011;15006;48.584;9.186;2022-09-12T01:20:55;7.50;;;7.00;;
27566;SDS011;15006;48.584;9.186;2022-09-12T01:27:19;7.53;;;6.97;;
27566;SDS011;15006;48.584;9.186;2022-09-12T01:32:48;7.72;;;7.22;;
27566;SDS011;15006;48.584;9.186;2022-09-12T01:36:02;6.88;;;6.28;;
27566;SDS011;15006;48.584;9.186;2022-09-12T01:44:03;7.50;;;6.90;;
27566;SDS011;15006;48.584;9.186;2022-09-12T01:54:39;7.60;;;7.10;;
27566;SDS011;15006;48.584;9.186;2022-09-12T01:57:19;7.60;;;7.00;;
27566;SDS011;15006;48.584;9.186;2022-09-12T01:59:53;7.35;;;6.70;;
27566;SDS011;15006;48.584;9.186;2022-09-12T02:02:30;6.82;;;6.43;;
27566;SDS011;15006;48.584;9.186;2022-09-12T02:05:14;6.35;;;5.95;;
27566;SDS011;15006;48.584;9.186;2022-09-12T02:07:56;6.75;;;6.35;;
27566;SDS011;15006;48.584;9.186;2022-09-12T02:10:33;7.90;;;7.40;;
27566;SDS011;15006;48.584;9.186;2022-09-12T02:13:22;7.68;;;7.00;;
27566;SDS011;15006;48.584;9.186;2022-09-12T02:15:58;7.85;;;7.13;;
27566;SDS011;15006;48.584;9.186;2022-09-12T02:18:35;8.00;;;7.50;;
27566;SDS011;15006;48.584;9.186;2022-09-12T02:21:05;7.70;;;7.10;;
27566;SDS011;15006;48.584;9.186;2022-09-12T02:23:32;7.88;;;7.38;;
27566;SDS011;15006;48.584;9.186;2022-09-12T02:26:05;7.68;;;7.07;;
27566;SDS011;15006;48.584;9.186;2022-09-12T02:28:41;8.77;;;8.18;;
27566;SDS011;15006;48.584;9.186;2022-09-12T02:31:13;9.38;;;8.77;;
27566;SDS011;15006;48.584;9.186;2022-09-12T02:34:01;10.20;;;9.40;;
27566;SDS011;15006;48.584;9.186;2022-09-12T02:39:14;9.00;;;8.18;;
27566;SDS011;15006;48.584;9.186;2022-09-12T02:41:45;8.00;;;7.47;;
27566;SDS011;15006;48.584;9.186;2022-09-12T02:44:14;7.70;;;7.30;;
27566;SDS011;15006;48.584;9.186;2022-09-12T02:46:45;7.40;;;6.88;;
27566;SDS011;15006;48.584;9.186;2022-09-12T02:49:15;6.65;;;6.20;;
27566;SDS011;15006;48.584;9.186;2022-09-12T02:51:41;6.93;;;6.43;;
27566;SDS011;15006;48.584;9.186;2022-09-12T02:54:08;7.20;;;6.45;;
27566;SDS011;15006;48.584;9.186;2022-09-12T02:56:39;6.40;;;6.00;;
27566;SDS011;15006;48.584;9.186;2022-09-12T02:59:08;6.05;;;5.65;;
27566;SDS011;15006;48.584;9.186;2022-09-12T03:22:40;8.30;;;7.70;;
27566;SDS011;15006;48.584;9.186;2022-09-12T03:25:16;9.48;;;8.68;;
27566;SDS011;15006;48.584;9.186;2022-09-12T03:27:58;9.57;;;8.82;;
27566;SDS011;15006;48.584;9.186;2022-09-12T03:30:39;10.18;;;9.13;;
27566;SDS011;15006;48.584;9.186;2022-09-12T03:33:11;9.98;;;9.20;;
27566;SDS011;15006;48.584;9.186;2022-09-12T03:35:40;10.45;;;9.23;;
27566;SDS011;15006;48.584;9.186;2022-09-12T03:38:06;9.70;;;9.00;;
27566;SDS011;15006;48.584;9.186;2022-09-12T03:40:33;8.73;;;8.02;;
27566;SDS011;15006;48.584;9.186;2022-09-12T03:43:00;8.65;;;8.05;;
27566;SDS011;15006;48.584;9.186;2022-09-12T03:45:27;9.40;;;8.60;;
27566;SDS011;15006;48.584;9.186;2022-09-12T03:47:53;8.35;;;7.57;;
27566;SDS011;15006;48.584;9.186;2022-09-12T03:50:19;8.32;;;7.82;;
27566;SDS011;15006;48.584;9.186;2022-09-12T03:52:45;8.30;;;7.55;;
27566;SDS011;15006;48.584;9.186;2022-09-12T03:55:11;7.53;;;7.00;;
27566;SDS011;15006;48.584;9.186;2022-09-12T03:57:37;8.18;;;7.47;;
27566;SDS011;15006;48.584;9.186;2022-09-12T04:00:04;7.63;;;7.00;;
27566;SDS011;15006;48.584;9.186;2022-09-12T04:02:33;8.05;;;7.05;;
27566;SDS011;15006;48.584;9.186;2022-09-12T04:04:59;7.53;;;6.60;;
27566;SDS011;15006;48.584;9.186;2022-09-12T04:07:26;7.00;;;6.60;;
27566;SDS011;15006;48.584;9.186;2022-09-12T04:09:52;6.97;;;6.50;;
27566;SDS011;15006;48.584;9.186;2022-09-12T04:12:19;6.47;;;6.07;;
27566;SDS011;15006;48.584;9.186;2022-09-12T04:14:45;6.00;;;5.63;;
27566;SDS011;15006;48.584;9.186;2022-09-12T04:17:12;7.00;;;6.40;;
27566;SDS011;15006;48.584;9.186;2022-09-12T04:19:39;6.20;;;5.80;;
27566;SDS011;15006;48.584;9.186;2022-09-12T04:22:04;7.38;;;6.68;;
27566;SDS011;15006;48.584;9.186;2022-09-12T04:24:30;6.05;;;5.53;;
27566;SDS011;15006;48.584;9.186;2022-09-12T04:26:57;6.28;;;5.60;;
27566;SDS011;15006;48.584;9.186;2022-09-12T04:29:23;5.78;;;5.47;;
27566;SDS011;15006;48.584;9.186;2022-09-12T04:31:49;6.53;;;6.13;;
27566;SDS011;15006;48.584;9.186;2022-09-12T04:34:15;6.65;;;6.15;;
27566;SDS011;15006;48.584;9.186;2022-09-12T04:36:41;6.38;;;6.07;;
27566;SDS011;15006;48.584;9.186;2022-09-12T04:39:09;6.63;;;6.22;;
27566;SDS011;15006;48.584;9.186;2022-09-12T04:41:36;6.72;;;6.32;;
27566;SDS011;15006;48.584;9.186;2022-09-12T04:44:05;6.80;;;6.18;;
27566;SDS011;15006;48.584;9.186;2022-09-12T04:46:38;6.53;;;6.03;;
27566;SDS011;15006;48.584;9.186;2022-09-12T04:49:08;6.53;;;6.10;;
27566;SDS011;15006;48.584;9.186;2022-09-12T04:51:36;5.97;;;5.68;;
27566;SDS011;15006;48.584;9.186;2022-09-12T04:54:06;6.20;;;5.80;;
27566;SDS011;15006;48.584;9.186;2022-09-12T04:56:37;14.32;;;7.07;;
27566;SDS011;15006;48.584;9.186;2022-09-12T04:59:05;24.38;;;6.85;;
27566;SDS011;15006;48.584;9.186;2022-09-12T05:01:33;23.88;;;6.50;;
27566;SDS011;15006;48.584;9.186;2022-09-12T05:04:00;7.22;;;6.70;;
27566;SDS011;15006;48.584;9.186;2022-09-12T05:06:28;7.35;;;6.85;;
27566;SDS011;15006;48.584;9.186;2022-09-12T05:08:58;7.53;;;6.82;;
27566;SDS011;15006;48.584;9.186;2022-09-12T05:11:27;14.65;;;6.88;;
27566;SDS011;15006;48.584;9.186;2022-09-12T05:13:56;9.50;;;6.28;;
27566;SDS011;15006;48.584;9.186;2022-09-12T05:16:23;11.93;;;6.15;;
27566;SDS011;15006;48.584;9.186;2022-09-12T05:18:50;23.70;;;6.50;;
27566;SDS011;15006;48.584;9.186;2022-09-12T05:21:18;19.42;;;6.32;;
27566;SDS011;15006;48.584;9.186;2022-09-12T05:23:49;23.65;;;6.35;;
27566;SDS011;15006;48.584;9.186;2022-09-12T05:26:24;38.00;;;7.15;;
27566;SDS011;15006;48.584;9.186;2022-09-12T05:28:50;9.15;;;5.82;;
27566;SDS011;15006;48.584;9.186;2022-09-12T05:31:19;7.10;;;6.25;;
27566;SDS011;15006;48.584;9.186;2022-09-12T05:33:51;10.50;;;6.63;;
27566;SDS011;15006;48.584;9.186;2022-09-12T05:36:23;12.75;;;6.80;;
27566;SDS011;15006;48.584;9.186;2022-09-12T05:38:54;27.92;;;6.50;;
27566;SDS011;15006;48.584;9.186;2022-09-12T05:41:22;17.38;;;7.35;;
27566;SDS011;15006;48.584;9.186;2022-09-12T05:43:51;84.97;;;7.57;;
27566;SDS011;15006;48.584;9.186;2022-09-12T05:46:19;97.20;;;6.90;;
27566;SDS011;15006;48.584;9.186;2022-09-12T05:48:48;107.22;;;6.63;;
27566;SDS011;15006;48.584;9.186;2022-09-12T05:51:19;85.95;;;6.80;;
27566;SDS011;15006;48.584;9.186;2022-09-12T05:53:54;83.90;;;5.80;;
27566;SDS011;15006;48.584;9.186;2022-09-12T05:56:26;106.53;;;5.55;;
27566;SDS011;15006;48.584;9.186;2022-09-12T05:59:02;121.70;;;6.47;;
27566;SDS011;15006;48.584;9.186;2022-09-12T06:01:31;89.07;;;6.28;;
27566;SDS011;15006;48.584;9.186;2022-09-12T06:04:00;117.03;;;6.68;;
27566;SDS011;15006;48.584;9.186;2022-09-12T06:06:29;96.70;;;7.15;;
27566;SDS011;15006;48.584;9.186;2022-09-12T06:08:58;89.80;;;5.32;;
27566;SDS011;15006;48.584;9.186;2022-09-12T06:11:27;68.00;;;5.45;;
27566;SDS011;15006;48.584;9.186;2022-09-12T06:13:58;40.63;;;5.13;;
27566;SDS011;15006;48.584;9.186;2022-09-12T06:16:25;42.22;;;4.85;;
27566;SDS011;15006;48.584;9.186;2022-09-12T06:18:54;43.22;;;5.47;;
27566;SDS011;15006;48.584;9.186;2022-09-12T06:21:24;38.30;;;4.97;;
27566;SDS011;15006;48.584;9.186;2022-09-12T06:23:52;12.65;;;4.90;;
27566;SDS011;15006;48.584;9.186;2022-09-12T06:26:19;10.30;;;4.65;;
27566;SDS011;15006;48.584;9.186;2022-09-12T06:28:48;22.83;;;5.10;;
27566;SDS011;15006;48.584;9.186;2022-09-12T06:31:15;31.05;;;5.07;;
27566;SDS011;15006;48.584;9.186;2022-09-12T06:33:50;47.83;;;6.25;;
27566;SDS011;15006;48.584;9.186;2022-09-12T06:36:19;33.95;;;6.05;;
27566;SDS011;15006;48.584;9.186;2022-09-12T06:38:46;54.58;;;6.60;;
27566;SDS011;15006;48.584;9.186;2022-09-12T06:41:18;56.78;;;5.13;;
27566;SDS011;15006;48.584;9.186;2022-09-12T06:43:44;56.58;;;5.00;;
27566;SDS011;15006;48.584;9.186;2022-09-12T06:46:10;33.08;;;4.45;;
27566;SDS011;15006;48.584;9.186;2022-09-12T06:48:37;27.33;;;5.13;;
27566;SDS011;15006;48.584;9.186;2022-09-12T06:51:04;27.02;;;4.80;;
27566;SDS011;15006;48.584;9.186;2022-09-12T06:53:36;32.78;;;5.18;;
27566;SDS011;15006;48.584;9.186;2022-09-12T06:56:06;34.28;;;6.28;;
27566;SDS011;15006;48.584;9.186;2022-09-12T06:58:35;44.08;;;5.85;;
27566;SDS011;15006;48.584;9.186;2022-09-12T07:01:03;22.15;;;5.30;;
27566;SDS011;15006;48.584;9.186;2022-09-12T07:03:33;47.67;;;6.15;;
27566;SDS011;15006;48.584;9.186;2022-09-12T07:06:34;6.03;;;5.38;;
27566;SDS011;15006;48.584;9.186;2022-09-12T07:08:56;5.63;;;5.22;;
27566;SDS011;15006;48.584;9.186;2022-09-12T07:11:25;6.90;;;5.22;;
27566;SDS011;15006;48.584;9.186;2022-09-12T07:13:56;6.55;;;6.15;;
27566;SDS011;15006;48.584;9.186;2022-09-12T07:16:24;6.18;;;5.78;;
27566;SDS011;15006;48.584;9.186;2022-09-12T07:18:51;10.32;;;6.15;;
27566;SDS011;15006;48.584;9.186;2022-09-12T07:21:20;10.45;;;5.25;;
27566;SDS011;15006;48.584;9.186;2022-09-12T07:23:46;6.03;;;5.53;;
27566;SDS011;15006;48.584;9.186;2022-09-12T07:26:13;5.47;;;5.18;;
27566;SDS011;15006;48.584;9.186;2022-09-12T07:28:40;4.97;;;4.78;;
27566;SDS011;15006;48.584;9.186;2022-09-12T07:31:11;5.15;;;4.95;;
27566;SDS011;15006;48.584;9.186;2022-09-12T07:33:40;4.53;;;4.32;;
27566;SDS011;15006;48.584;9.186;2022-09-12T07:36:09;5.25;;;4.80;;
27566;SDS011;15006;48.584;9.186;2022-09-12T07:38:38;4.45;;;4.13;;
27566;SDS011;15006;48.584;9.186;2022-09-12T07:41:12;4.20;;;4.00;;
27566;SDS011;15006;48.584;9.186;2022-09-12T07:43:43;4.22;;;4.00;;
27566;SDS011;15006;48.584;9.186;2022-09-12T07:46:10;4.13;;;3.92;;
27566;SDS011;15006;48.584;9.186;2022-09-12T07:48:36;4.40;;;4.10;;
27566;SDS011;15006;48.584;9.186;2022-09-12T07:51:04;4.88;;;4.15;;
27566;SDS011;15006;48.584;9.186;2022-09-12T07:53:33;4.03;;;3.83;;
27566;SDS011;15006;48.584;9.186;2022-09-12T07:56:02;3.50;;;3.40;;
27566;SDS011;15006;48.584;9.186;2022-09-12T07:58:30;4.10;;;3.90;;
27566;SDS011;15006;48.584;9.186;2022-09-12T08:03:40;3.80;;;3.60;;
27566;SDS011;15006;48.584;9.186;2022-09-12T08:06:09;3.05;;;2.85;;
27566;SDS011;15006;48.584;9.186;2022-09-12T08:08:45;3.65;;;3.42;;
27566;SDS011;15006;48.584;9.186;2022-09-12T08:11:12;5.55;;;3.50;;
27566;SDS011;15006;48.584;9.186;2022-09-12T08:13:41;3.85;;;3.65;;
27566;SDS011;15006;48.584;9.186;2022-09-12T08:16:12;3.22;;;3.13;;
27566;SDS011;15006;48.584;9.186;2022-09-12T08:18:42;3.50;;;3.30;;
27566;SDS011;15006;48.584;9.186;2022-09-12T08:21:13;3.03;;;2.92;;
27566;SDS011;15006;48.584;9.186;2022-09-12T08:23:41;3.15;;;3.00;;
27566;SDS011;15006;48.584;9.186;2022-09-12T08:26:09;3.47;;;3.38;;
27566;SDS011;15006;48.584;9.186;2022-09-12T08:28:36;3.10;;;3.00;;
27566;SDS011;15006;48.584;9.186;2022-09-12T08:31:10;3.10;;;3.00;;
27566;SDS011;15006;48.584;9.186;2022-09-12T08:33:39;2.70;;;2.60;;
27566;SDS011;15006;48.584;9.186;2022-09-12T08:36:10;2.88;;;2.78;;
27566;SDS011;15006;48.584;9.186;2022-09-12T08:38:46;2.90;;;2.80;;
27566;SDS011;15006;48.584;9.186;2022-09-12T08:57:59;2.05;;;1.95;;
27566;SDS011;15006;48.584;9.186;2022-09-12T09:15:44;2.58;;;2.47;;
27566;SDS011;15006;48.584;9.186;2022-09-12T09:18:30;2.22;;;2.13;;
27566;SDS011;15006;48.584;9.186;2022-09-12T09:21:02;2.13;;;2.03;;
27566;SDS011;15006;48.584;9.186;2022-09-12T09:23:42;2.70;;;1.75;;
27566;SDS011;15006;48.584;9.186;2022-09-12T09:26:22;1.88;;;1.77;;
27566;SDS011;15006;48.584;9.186;2022-09-12T09:31:38;1.23;;;1.23;;
27566;SDS011;15006;48.584;9.186;2022-09-12T09:34:17;1.50;;;1.50;;
27566;SDS011;15006;48.584;9.186;2022-09-12T09:39:45;1.40;;;1.40;;
27566;SDS011;15006;48.584;9.186;2022-09-12T09:45:11;1.70;;;1.70;;
27566;SDS011;15006;48.584;9.186;2022-09-12T09:47:43;1.30;;;1.17;;
27566;SDS011;15006;48.584;9.186;2022-09-12T09:50:19;1.10;;;1.10;;
27566;SDS011;15006;48.584;9.186;2022-09-12T09:52:45;0.90;;;0.90;;
27566;SDS011;15006;48.584;9.186;2022-09-12T09:55:18;1.00;;;1.00;;
27566;SDS011;15006;48.584;9.186;2022-09-12T09:57:48;0.85;;;0.85;;
27566;SDS011;15006;48.584;9.186;2022-09-12T10:08:47;1.67;;;1.58;;
27566;SDS011;15006;48.584;9.186;2022-09-12T10:13:42;1.33;;;1.17;;
27566;SDS011;15006;48.584;9.186;2022-09-12T10:16:24;1.15;;;1.02;;
27566;SDS011;15006;48.584;9.186;2022-09-12T10:19:02;1.20;;;1.20;;
27566;SDS011;15006;48.584;9.186;2022-09-12T10:21:30;1.02;;;1.02;;
27566;SDS011;15006;48.584;9.186;2022-09-12T10:24:20;2.25;;;1.00;;
27566;SDS011;15006;48.584;9.186;2022-09-12T10:26:53;1.00;;;1.00;;
27566;SDS011;15006;48.584;9.186;2022-09-12T10:29:24;2.90;;;1.08;;
27566;SDS011;15006;48.584;9.186;2022-09-12T10:31:58;0.90;;;0.90;;
27566;SDS011;15006;48.584;9.186;2022-09-12T10:34:40;2.05;;;0.95;;
27566;SDS011;15006;48.584;9.186;2022-09-12T10:40:01;1.73;;;1.48;;
27566;SDS011;15006;48.584;9.186;2022-09-12T10:45:24;1.40;;;1.30;;
27566;SDS011;15006;48.584;9.186;2022-09-12T10:50:59;0.70;;;0.70;;
27566;SDS011;15006;48.584;9.186;2022-09-12T10:53:27;0.70;;;0.70;;
27566;SDS011;15006;48.584;9.186;2022-09-12T10:56:15;1.02;;;1.02;;
27566;SDS011;15006;48.584;9.186;2022-09-12T11:01:41;0.75;;;0.75;;
27566;SDS011;15006;48.584;9.186;2022-09-12T11:04:40;0.80;;;0.80;;
27566;SDS011;15006;48.584;9.186;2022-09-12T11:13:19;2.80;;;0.88;;
27566;SDS011;15006;48.584;9.186;2022-09-12T11:16:39;0.80;;;0.80;;
27566;SDS011;15006;48.584;9.186;2022-09-12T11:19:08;0.70;;;0.70;;
27566;SDS011;15006;48.584;9.186;2022-09-12T11:30:17;0.60;;;0.60;;
27566;SDS011;15006;48.584;9.186;2022-09-12T11:35:49;0.47;;;0.47;;
27566;SDS011;15006;48.584;9.186;2022-09-12T11:41:08;0.68;;;0.50;;
27566;SDS011;15006;48.584;9.186;2022-09-12T11:43:49;0.43;;;0.40;;
27566;SDS011;15006;48.584;9.186;2022-09-12T11:46:47;0.50;;;0.50;;
27566;SDS011;15006;48.584;9.186;2022-09-12T11:52:18;0.30;;;0.30;;
27566;SDS011;15006;48.584;9.186;2022-09-12T11:54:59;0.47;;;0.30;;
27566;SDS011;15006;48.584;9.186;2022-09-12T12:00:16;0.30;;;0.30;;
27566;SDS011;15006;48.584;9.186;2022-09-12T12:05:46;0.47;;;0.30;;
27566;SDS011;15006;48.584;9.186;2022-09-12T12:08:33;0.82;;;0.30;;
27566;SDS011;15006;48.584;9.186;2022-09-12T12:11:05;0.30;;;0.30;;
27566;SDS011;15006;48.584;9.186;2022-09-12T12:16:18;0.38;;;0.30;;
27566;SDS011;15006;48.584;9.186;2022-09-12T12:18:56;1.13;;;0.45;;
27566;SDS011;15006;48.584;9.186;2022-09-12T12:21:44;1.95;;;0.30;;
27566;SDS011;15006;48.584;9.186;2022-09-12T12:24:18;0.17;;;0.17;;
27566;SDS011;15006;48.584;9.186;2022-09-12T12:34:30;0.30;;;0.30;;
27566;SDS011;15006;48.584;9.186;2022-09-12T12:39:56;1.30;;;0.47;;
27566;SDS011;15006;48.584;9.186;2022-09-12T12:47:46;0.22;;;0.22;;
27566;SDS011;15006;48.584;9.186;2022-09-12T12:55:19;0.30;;;0.30;;
27566;SDS011;15006;48.584;9.186;2022-09-12T12:58:04;1.02;;;0.40;;
27566;SDS011;15006;48.584;9.186;2022-09-12T13:00:33;2.10;;;0.45;;
27566;SDS011;15006;48.584;9.186;2022-09-12T13:05:41;0.28;;;0.28;;
27566;SDS011;15006;48.584;9.186;2022-09-12T13:08:18;0.30;;;0.30;;
27566;SDS011;15006;48.584;9.186;2022-09-12T13:13:36;1.75;;;0.50;;
27566;SDS011;15006;48.584;9.186;2022-09-12T13:16:08;0.30;;;0.30;;
27566;SDS011;15006;48.584;9.186;2022-09-12T13:18:53;0.25;;;0.25;;
27566;SDS011;15006;48.584;9.186;2022-09-12T13:21:22;0.30;;;0.30;;
27566;SDS011;15006;48.584;9.186;2022-09-12T13:23:58;1.55;;;0.47;;
27566;SDS011;15006;48.584;9.186;2022-09-12T13:26:40;0.40;;;0.38;;
27566;SDS011;15006;48.584;9.186;2022-09-12T13:29:11;0.50;;;0.30;;
27566;SDS011;15006;48.584;9.186;2022-09-12T13:31:44;0.40;;;0.40;;
27566;SDS011;15006;48.584;9.186;2022-09-12T13:34:16;0.38;;;0.35;;
27566;SDS011;15006;48.584;9.186;2022-09-12T13:37:02;0.40;;;0.30;;
27566;SDS011;15006;48.584;9.186;2022-09-12T13:40:01;0.40;;;0.40;;
27566;SDS011;15006;48.584;9.186;2022-09-12T13:43:14;0.40;;;0.40;;
27566;SDS011;15006;48.584;9.186;2022-09-12T13:45:45;0.45;;;0.32;;
27566;SDS011;15006;48.584;9.186;2022-09-12T13:48:14;5.25;;;0.40;;
27566;SDS011;15006;48.584;9.186;2022-09-12T13:50:52;0.50;;;0.40;;
27566;SDS011;15006;48.584;9.186;2022-09-12T13:53:23;0.43;;;0.30;;
27566;SDS011;15006;48.584;9.186;2022-09-12T13:56:00;0.40;;;0.40;;
27566;SDS011;15006;48.584;9.186;2022-09-12T13:58:27;2.10;;;0.40;;
27566;SDS011;15006;48.584;9.186;2022-09-12T14:03:41;0.30;;;0.30;;
27566;SDS011;15006;48.584;9.186;2022-09-12T14:06:33;0.40;;;0.40;;
27566;SDS011;15006;48.584;9.186;2022-09-12T14:09:14;0.20;;;0.20;;
27566;SDS011;15006;48.584;9.186;2022-09-12T14:11:49;1.05;;;0.30;;
27566;SDS011;15006;48.584;9.186;2022-09-12T14:14:27;0.30;;;0.30;;
27566;SDS011;15006;48.584;9.186;2022-09-12T14:17:00;0.28;;;0.20;;
27566;SDS011;15006;48.584;9.186;2022-09-12T14:19:41;0.55;;;0.28;;
27566;SDS011;15006;48.584;9.186;2022-09-12T14:22:10;0.40;;;0.40;;
27566;SDS011;15006;48.584;9.186;2022-09-12T14:24:46;0.32;;;0.32;;
27566;SDS011;15006;48.584;9.186;2022-09-12T14:27:18;0.50;;;0.50;;
27566;SDS011;15006;48.584;9.186;2022-09-12T14:29:51;0.98;;;0.40;;
27566;SDS011;15006;48.584;9.186;2022-09-12T14:32:25;0.47;;;0.40;;
27566;SDS011;15006;48.584;9.186;2022-09-12T14:35:16;0.20;;;0.20;;
27566;SDS011;15006;48.584;9.186;2022-09-12T14:37:47;0.47;;;0.20;;
27566;SDS011;15006;48.584;9.186;2022-09-12T14:40:15;0.20;;;0.20;;
27566;SDS011;15006;48.584;9.186;2022-09-12T14:42:48;0.73;;;0.20;;
27566;SDS011;15006;48.584;9.186;2022-09-12T14:45:23;0.17;;;0.17;;
27566;SDS011;15006;48.584;9.186;2022-09-12T14:47:53;0.20;;;0.20;;
27566;SDS011;15006;48.584;9.186;2022-09-12T14:50:25;0.10;;;0.10;;
27566;SDS011;15006;48.584;9.186;2022-09-12T14:53:06;0.20;;;0.20;;
27566;SDS011;15006;48.584;9.186;2022-09-12T14:55:48;0.20;;;0.20;;
27566;SDS011;15006;48.584;9.186;2022-09-12T14:58:40;0.10;;;0.10;;
27566;SDS011;15006;48.584;9.186;2022-09-12T15:03:34;0.20;;;0.20;;
27566;SDS011;15006;48.584;9.186;2022-09-12T15:06:04;0.30;;;0.20;;
27566;SDS011;15006;48.584;9.186;2022-09-12T15:11:04;0.28;;;0.20;;
27566;SDS011;15006;48.584;9.186;2022-09-12T15:16:07;0.20;;;0.20;;
27566;SDS011;15006;48.584;9.186;2022-09-12T15:18:36;0.20;;;0.20;;
27566;SDS011;15006;48.584;9.186;2022-09-12T15:21:04;0.32;;;0.20;;
27566;SDS011;15006;48.584;9.186;2022-09-12T15:26:09;0.22;;;0.22;;
27566;SDS011;15006;48.584;9.186;2022-09-12T15:28:39;4.50;;;0.40;;
27566;SDS011;15006;48.584;9.186;2022-09-12T15:31:06;0.45;;;0.32;;
27566;SDS011;15006;48.584;9.186;2022-09-12T15:33:36;0.28;;;0.20;;
27566;SDS011;15006;48.584;9.186;2022-09-12T15:36:03;0.20;;;0.20;;
27566;SDS011;15006;48.584;9.186;2022-09-12T15:38:41;0.40;;;0.20;;
27566;SDS011;15006;48.584;9.186;2022-09-12T15:41:15;0.20;;;0.10;;
27566;SDS011;15006;48.584;9.186;2022-09-12T15:43:52;0.63;;;0.25;;
27566;SDS011;15006;48.584;9.186;2022-09-12T15:46:19;0.30;;;0.20;;
27566;SDS011;15006;48.584;9.186;2022-09-12T15:48:45;0.68;;;0.20;;
27566;SDS011;15006;48.584;9.186;2022-09-12T15:51:15;0.32;;;0.20;;
27566;SDS011;15006;48.584;9.186;2022-09-12T15:53:44;0.28;;;0.20;;
27566;SDS011;15006;48.584;9.186;2022-09-12T15:56:12;0.30;;;0.30;;
27566;SDS011;15006;48.584;9.186;2022-09-12T15:58:41;0.30;;;0.30;;
27566;SDS011;15006;48.584;9.186;2022-09-12T16:01:09;0.13;;;0.13;;
27566;SDS011;15006;48.584;9.186;2022-09-12T16:03:37;0.20;;;0.20;;
27566;SDS011;15006;48.584;9.186;2022-09-12T16:06:03;0.75;;;0.20;;
27566;SDS011;15006;48.584;9.186;2022-09-12T16:08:31;0.10;;;0.10;;
27566;SDS011;15006;48.584;9.186;2022-09-12T16:11:12;0.20;;;0.20;;
27566;SDS011;15006;48.584;9.186;2022-09-12T16:13:47;0.32;;;0.28;;
27566;SDS011;15006;48.584;9.186;2022-09-12T16:16:16;0.43;;;0.20;;
27566;SDS011;15006;48.584;9.186;2022-09-12T16:18:42;1.58;;;0.30;;
27566;SDS011;15006;48.584;9.186;2022-09-12T16:21:08;0.20;;;0.20;;
27566;SDS011;15006;48.584;9.186;2022-09-12T16:23:34;1.20;;;0.30;;
27566;SDS011;15006;48.584;9.186;2022-09-12T16:26:01;0.45;;;0.40;;
27566;SDS011;15006;48.584;9.186;2022-09-12T16:28:30;1.45;;;0.43;;
27566;SDS011;15006;48.584;9.186;2022-09-12T16:30:58;0.95;;;0.20;;
27566;SDS011;15006;48.584;9.186;2022-09-12T16:33:27;0.20;;;0.20;;
27566;SDS011;15006;48.584;9.186;2022-09-12T16:36:04;0.30;;;0.30;;
27566;SDS011;15006;48.584;9.186;2022-09-12T16:38:42;0.30;;;0.30;;
27566;SDS011;15006;48.584;9.186;2022-09-12T16:41:14;0.38;;;0.38;;
27566;SDS011;15006;48.584;9.186;2022-09-12T16:43:42;1.13;;;0.20;;
27566;SDS011;15006;48.584;9.186;2022-09-12T16:46:14;0.65;;;0.60;;
27566;SDS011;15006;48.584;9.186;2022-09-12T16:48:46;0.30;;;0.30;;
27566;SDS011;15006;48.584;9.186;2022-09-12T16:51:15;0.35;;;0.35;;
27566;SDS011;15006;48.584;9.186;2022-09-12T16:53:46;0.30;;;0.30;;
27566;SDS011;15006;48.584;9.186;2022-09-12T16:56:13;8.70;;;0.65;;
27566;SDS011;15006;48.584;9.186;2022-09-12T16:58:40;0.47;;;0.47;;
27566;SDS011;15006;48.584;9.186;2022-09-12T17:01:11;0.32;;;0.30;;
27566;SDS011;15006;48.584;9.186;2022-09-12T17:03:45;0.40;;;0.40;;
27566;SDS011;15006;48.584;9.186;2022-09-12T17:06:13;0.30;;;0.30;;
27566;SDS011;15006;48.584;9.186;2022-09-12T17:08:43;0.65;;;0.40;;
27566;SDS011;15006;48.584;9.186;2022-09-12T17:13:50;0.40;;;0.40;;
27566;SDS011;15006;48.584;9.186;2022-09-12T17:16:18;0.50;;;0.50;;
27566;SDS011;15006;48.584;9.186;2022-09-12T17:18:45;3.10;;;0.50;;
27566;SDS011;15006;48.584;9.186;2022-09-12T17:21:11;1.70;;;0.70;;
27566;SDS011;15006;48.584;9.186;2022-09-12T17:23:38;0.43;;;0.43;;
27566;SDS011;15006;48.584;9.186;2022-09-12T17:26:06;0.50;;;0.50;;
27566;SDS011;15006;48.584;9.186;2022-09-12T17:28:34;0.60;;;0.60;;
27566;SDS011;15006;48.584;9.186;2022-09-12T17:31:02;0.70;;;0.70;;
27566;SDS011;15006;48.584;9.186;2022-09-12T17:33:31;0.75;;;0.70;;
27566;SDS011;15006;48.584;9.186;2022-09-12T17:38:36;0.60;;;0.60;;
27566;SDS011;15006;48.584;9.186;2022-09-12T17:41:11;0.60;;;0.60;;
27566;SDS011;15006;48.584;9.186;2022-09-12T17:43:40;0.70;;;0.52;;
27566;SDS011;15006;48.584;9.186;2022-09-12T17:46:06;0.60;;;0.60;;
27566;SDS011;15006;48.584;9.186;2022-09-12T17:48:33;0.70;;;0.70;;
27566;SDS011;15006;48.584;9.186;2022-09-12T17:51:21;0.63;;;0.63;;
27566;SDS011;15006;48.584;9.186;2022-09-12T17:53:56;0.60;;;0.60;;
27566;SDS011;15006;48.584;9.186;2022-09-12T17:56:33;0.70;;;0.60;;
27566;SDS011;15006;48.584;9.186;2022-09-12T17:59:01;0.60;;;0.60;;
27566;SDS011;15006;48.584;9.186;2022-09-12T18:01:29;0.80;;;0.80;;
27566;SDS011;15006;48.584;9.186;2022-09-12T18:04:14;0.70;;;0.70;;
27566;SDS011;15006;48.584;9.186;2022-09-12T18:06:41;0.65;;;0.65;;
27566;SDS011;15006;48.584;9.186;2022-09-12T18:09:13;0.60;;;0.60;;
27566;SDS011;15006;48.584;9.186;2022-09-12T18:11:43;0.87;;;0.87;;
27566;SDS011;15006;48.584;9.186;2022-09-12T18:14:09;0.63;;;0.63;;
27566;SDS011;15006;48.584;9.186;2022-09-12T18:16:39;0.80;;;0.80;;
27566;SDS011;15006;48.584;9.186;2022-09-12T18:19:07;0.60;;;0.60;;
27566;SDS011;15006;48.584;9.186;2022-09-12T18:21:34;0.60;;;0.60;;
27566;SDS011;15006;48.584;9.186;2022-09-12T18:24:00;0.60;;;0.60;;